createdAt,value
2022-09-21T00:00:11.200Z,12.50
2022-09-21T00:05:14.078Z,12.40
2022-09-21T00:10:17.190Z,12.40
2022-09-21T00:15:21.492Z,12.30
2022-09-21T00:20:25.206Z,12.20
2022-09-21T00:25:28.175Z,12.20
2022-09-21T00:30:32.456Z,12.10
2022-09-21T00:35:35.447Z,12.00
2022-09-21T00:40:38.371Z,12.00
2022-09-21T00:45:43.544Z,11.90
2022-09-21T00:50:53.802Z,11.90
2022-09-21T00:55:59.835Z,11.80
2022-09-21T01:01:04.171Z,11.80
2022-09-21T01:06:07.558Z,11.70
2022-09-21T01:11:25.512Z,11.70
2022-09-21T01:16:36.095Z,11.70
2022-09-21T01:21:52.774Z,11.60
2022-09-21T01:27:12.695Z,11.60
2022-09-21T01:32:23.665Z,11.60
2022-09-21T01:37:32.510Z,11.50
2022-09-21T01:42:36.124Z,11.40
2022-09-21T01:47:43.834Z,11.40
2022-09-21T01:52:51.329Z,11.30
2022-09-21T01:57:57.774Z,11.30
2022-09-21T02:03:06.367Z,11.20
2022-09-21T02:08:10.404Z,11.10
2022-09-21T02:13:16.664Z,11.10
2022-09-21T02:18:36.737Z,11.00
2022-09-21T02:23:46.228Z,10.90
2022-09-21T02:28:54.767Z,10.80
2022-09-21T02:34:03.267Z,10.70
2022-09-21T02:39:11.833Z,10.70
2022-09-21T02:44:20.728Z,10.70
2022-09-21T02:49:29.934Z,10.60
2022-09-21T02:54:35.128Z,10.60
2022-09-21T02:59:38.100Z,10.50
2022-09-21T03:04:43.590Z,10.50
2022-09-21T03:09:46.553Z,10.40
2022-09-21T03:14:51.239Z,10.40
2022-09-21T03:19:55.489Z,10.40
2022-09-21T03:24:59.660Z,10.30
2022-09-21T03:30:02.789Z,10.30
2022-09-21T03:35:08.312Z,10.30
2022-09-21T03:40:12.698Z,10.30
2022-09-21T03:45:15.827Z,10.20
2022-09-21T03:50:20.234Z,10.20
2022-09-21T03:55:23.115Z,10.20
2022-09-21T04:00:26.192Z,10.10
2022-09-21T04:05:30.499Z,10.10
2022-09-21T04:10:33.782Z,10.00
2022-09-21T04:15:36.760Z,10.00
2022-09-21T04:20:41.489Z,10.00
2022-09-21T04:25:46.547Z,10.00
2022-09-21T04:30:49.547Z,9.90
2022-09-21T04:35:57.461Z,9.90
2022-09-21T04:41:01.077Z,9.90
2022-09-21T04:46:08.222Z,9.80
2022-09-21T04:51:13.137Z,9.70
2022-09-21T04:56:17.155Z,9.70
2022-09-21T05:01:20.077Z,9.70
2022-09-21T05:06:24.384Z,9.60
2022-09-21T05:11:28.054Z,9.60
2022-09-21T05:16:30.918Z,9.60
2022-09-21T05:21:36.400Z,9.50
2022-09-21T05:26:39.395Z,9.50
2022-09-21T05:31:48.845Z,9.40
2022-09-21T05:36:58.694Z,9.40
2022-09-21T05:42:02.239Z,9.40
2022-09-21T05:47:11.430Z,9.40
2022-09-21T05:52:25.940Z,9.40
2022-09-21T05:57:39.767Z,9.40
2022-09-21T06:03:06.416Z,9.30
2022-09-21T06:08:10.677Z,9.40
2022-09-21T06:13:13.687Z,9.40
2022-09-21T06:18:18.151Z,9.40
2022-09-21T06:23:22.819Z,9.40
2022-09-21T06:28:25.947Z,9.40
2022-09-21T06:33:28.811Z,9.50
2022-09-21T06:38:35.213Z,9.50
2022-09-21T06:43:38.164Z,9.50
2022-09-21T06:48:41.051Z,9.60
2022-09-21T06:53:45.277Z,9.60
2022-09-21T06:58:48.525Z,9.70
2022-09-21T07:03:52.498Z,9.70
2022-09-21T07:14:20.180Z,10.00
2022-09-21T07:19:23.070Z,10.10
2022-09-21T07:24:27.510Z,10.30
2022-09-21T07:29:31.341Z,10.50
2022-09-21T07:34:37.074Z,10.80
2022-09-21T07:39:41.287Z,11.00
2022-09-21T07:44:44.696Z,11.40
2022-09-21T07:49:47.916Z,11.60
2022-09-21T07:54:52.141Z,11.90
2022-09-21T07:59:56.566Z,12.30
2022-09-21T08:04:59.446Z,12.50
2022-09-21T08:10:04.420Z,12.80
2022-09-21T08:15:16.501Z,13.00
2022-09-21T08:20:29.140Z,13.20
2022-09-21T08:25:34.406Z,13.50
2022-09-21T08:30:37.332Z,13.70
2022-09-21T08:35:40.322Z,13.90
2022-09-21T08:40:44.965Z,14.20
2022-09-21T08:45:48.083Z,14.40
2022-09-21T08:50:54.029Z,14.70
2022-09-21T08:55:58.890Z,14.80
2022-09-21T09:01:18.716Z,15.10
2022-09-21T09:06:28.917Z,15.30
2022-09-21T09:11:45.135Z,15.60
2022-09-21T09:16:59.792Z,15.80
2022-09-21T09:22:04.890Z,16.00
2022-09-21T09:27:16.770Z,16.10
2022-09-21T09:32:20.814Z,16.30
2022-09-21T09:37:31.805Z,16.40
2022-09-21T09:42:51.311Z,16.60
2022-09-21T09:48:08.438Z,16.80
2022-09-21T09:53:16.252Z,16.90
2022-09-21T09:58:23.102Z,17.00
2022-09-21T10:03:27.729Z,17.20
2022-09-21T10:08:46.510Z,17.30
2022-09-21T10:13:50.819Z,17.40
2022-09-21T10:18:56.324Z,17.60
2022-09-21T10:24:02.251Z,17.70
2022-09-21T10:29:21.789Z,17.80
2022-09-21T10:34:26.325Z,18.10
2022-09-21T10:39:31.318Z,18.20
2022-09-21T10:44:43.578Z,18.30
2022-09-21T10:49:50.300Z,18.50
2022-09-21T10:54:56.775Z,18.60
2022-09-21T11:00:29.232Z,18.70
2022-09-21T11:05:35.583Z,18.90
2022-09-21T11:10:46.294Z,19.00
2022-09-21T11:15:57.854Z,19.10
2022-09-21T11:21:06.713Z,19.30
2022-09-21T11:26:16.425Z,19.40
2022-09-21T11:31:38.456Z,19.60
2022-09-21T11:36:52.706Z,19.80
2022-09-21T11:42:10.908Z,19.90
2022-09-21T11:47:27.036Z,20.00
2022-09-21T11:52:47.795Z,20.20
2022-09-21T11:57:58.960Z,20.30
2022-09-21T12:03:33.712Z,20.40
2022-09-21T12:09:15.190Z,20.60
2022-09-21T12:14:25.389Z,20.70
2022-09-21T12:19:36.958Z,20.80
2022-09-21T12:24:44.659Z,20.90
2022-09-21T12:29:52.966Z,20.90
2022-09-21T12:34:59.859Z,21.10
2022-09-21T12:40:14.659Z,21.20
2022-09-21T12:45:23.833Z,21.40
2022-09-21T12:50:35.784Z,21.50
2022-09-21T12:55:47.354Z,21.40
2022-09-21T13:01:05.886Z,21.30
2022-09-21T13:06:30.376Z,21.10
2022-09-21T13:11:35.284Z,21.00
2022-09-21T13:16:40.502Z,20.90
2022-09-21T13:21:44.987Z,20.70
2022-09-21T13:26:55.274Z,20.50
2022-09-21T13:32:00.496Z,20.50
2022-09-21T13:37:35.427Z,20.40
2022-09-21T13:42:47.944Z,20.60
2022-09-21T13:47:53.393Z,20.80
2022-09-21T13:53:00.915Z,21.20
2022-09-21T13:58:07.282Z,21.50
2022-09-21T14:03:23.063Z,21.70
2022-09-21T14:08:32.309Z,21.80
2022-09-21T14:13:38.039Z,21.80
2022-09-21T14:18:40.986Z,21.80
2022-09-21T14:24:20.869Z,21.90
2022-09-21T14:29:28.949Z,22.10
2022-09-21T14:34:36.888Z,22.30
2022-09-21T14:39:45.417Z,22.60
2022-09-21T14:44:51.733Z,22.80
2022-09-21T14:50:19.140Z,23.10
2022-09-21T14:55:27.948Z,23.30
2022-09-21T15:00:39.610Z,23.40
2022-09-21T15:05:47.481Z,23.40
2022-09-21T15:10:57.246Z,23.40
2022-09-21T15:16:28.585Z,23.50
2022-09-21T15:21:33.094Z,23.30
2022-09-21T15:26:40.376Z,23.20
2022-09-21T15:31:43.422Z,23.00
2022-09-21T15:36:49.053Z,22.70
2022-09-21T15:42:26.508Z,22.50
2022-09-21T15:47:29.906Z,22.20
2022-09-21T15:52:38.868Z,22.10
2022-09-21T15:57:44.401Z,22.00
2022-09-21T16:02:57.043Z,21.90
2022-09-21T16:08:10.099Z,21.90
2022-09-21T16:13:37.253Z,21.90
2022-09-21T16:18:46.578Z,21.90
2022-09-21T16:23:51.352Z,21.80
2022-09-21T16:29:17.536Z,21.80
2022-09-21T16:34:23.081Z,21.80
2022-09-21T16:39:27.428Z,21.80
2022-09-21T16:44:35.847Z,21.80
2022-09-21T16:49:38.708Z,21.70
2022-09-21T16:54:41.617Z,21.60
2022-09-21T16:59:45.948Z,21.50
2022-09-21T17:04:48.911Z,21.40
2022-09-21T17:09:51.901Z,21.20
2022-09-21T17:14:56.152Z,21.00
2022-09-21T17:19:59.036Z,20.80
2022-09-21T17:25:01.933Z,20.60
2022-09-21T17:30:12.866Z,20.30
2022-09-21T17:35:18.523Z,20.00
2022-09-21T17:40:24.123Z,19.70
2022-09-21T17:45:38.655Z,19.40
2022-09-21T17:50:41.925Z,19.10
2022-09-21T17:55:54.310Z,18.90
2022-09-21T18:01:03.351Z,18.70
2022-09-21T18:06:07.231Z,18.50
2022-09-21T18:11:46.191Z,18.30
2022-09-21T18:16:58.986Z,18.10
2022-09-21T18:22:23.885Z,18.00
2022-09-21T18:27:27.179Z,17.80
2022-09-21T18:32:44.306Z,17.70
2022-09-21T18:37:59.425Z,17.50
2022-09-21T18:43:13.424Z,17.40
2022-09-21T18:48:29.567Z,17.40
2022-09-21T18:53:40.298Z,17.20
2022-09-21T18:58:43.793Z,17.10
2022-09-21T19:03:49.131Z,17.00
2022-09-21T19:08:59.688Z,16.90
2022-09-21T19:14:09.066Z,16.80
2022-09-21T19:19:25.649Z,16.70
2022-09-21T19:24:33.948Z,16.60
2022-09-21T19:29:47.954Z,16.50
2022-09-21T19:34:54.318Z,16.40
2022-09-21T19:39:57.579Z,16.30
2022-09-21T19:45:13.316Z,16.10
2022-09-21T19:50:19.978Z,16.10
2022-09-21T19:55:41.103Z,16.00
2022-09-21T20:00:45.996Z,15.80
2022-09-21T20:05:57.675Z,15.70
2022-09-21T20:11:11.003Z,15.60
2022-09-21T20:16:28.878Z,15.50
2022-09-21T20:21:38.907Z,15.40
2022-09-21T20:26:42.548Z,15.30
2022-09-21T20:31:48.351Z,15.10
2022-09-21T20:36:52.588Z,15.00
2022-09-21T20:41:57.832Z,14.90
2022-09-21T20:47:00.696Z,14.80
2022-09-21T20:52:05.143Z,14.60
2022-09-21T20:57:08.228Z,14.50
2022-09-21T21:02:12.676Z,14.40
2022-09-21T21:07:16.938Z,14.30
2022-09-21T21:12:20.178Z,14.20
2022-09-21T21:17:23.054Z,14.20
2022-09-21T21:22:27.268Z,14.10
2022-09-21T21:27:30.139Z,14.00
2022-09-21T21:32:33.273Z,13.90
2022-09-21T21:37:37.774Z,13.90
2022-09-21T21:42:40.664Z,13.80
2022-09-21T21:47:43.524Z,13.80
2022-09-21T21:52:47.756Z,13.70
2022-09-21T21:57:51.303Z,13.60
2022-09-21T22:02:56.614Z,13.50
2022-09-21T22:08:00.824Z,13.50
2022-09-21T22:13:05.022Z,13.40
2022-09-21T22:18:07.887Z,13.30
2022-09-21T22:23:12.128Z,13.30
2022-09-21T22:28:15.182Z,13.20
2022-09-21T22:33:18.215Z,13.20
2022-09-21T22:38:22.472Z,13.10
2022-09-21T22:43:25.699Z,13.10
2022-09-21T22:48:28.988Z,13.00
2022-09-21T22:53:33.299Z,12.90
2022-09-21T22:58:37.832Z,12.90
2022-09-21T23:03:42.622Z,12.80
2022-09-21T23:08:49.944Z,12.80
2022-09-21T23:13:52.815Z,12.70
2022-09-21T23:18:56.146Z,12.60
2022-09-21T23:24:02.152Z,12.50
2022-09-21T23:29:08.829Z,12.50
2022-09-21T23:34:13.123Z,12.50
2022-09-21T23:39:17.477Z,12.40
2022-09-21T23:44:20.426Z,12.30
2022-09-21T23:49:23.310Z,12.30
2022-09-21T23:54:27.528Z,12.20
2022-09-21T23:59:30.459Z,12.10
